sensor_id;sensor_type;location;lat;lon;timestamp;P1;durP1;ratioP1;P2;durP2;ratioP2
33206;SDS011;19565;46.602;11.534;2024-03-23T00:53:15;13.40;;;12.40;;
33206;SDS011;19565;46.602;11.534;2024-03-23T00:55:43;13.17;;;12.47;;
33206;SDS011;19565;46.602;11.534;2024-03-23T00:58:10;12.30;;;11.70;;
33206;SDS011;19565;46.602;11.534;2024-03-23T01:00:37;12.57;;;11.97;;
33206;SDS011;19565;46.602;11.534;2024-03-23T01:03:03;13.33;;;12.63;;
33206;SDS011;19565;46.602;11.534;2024-03-23T01:05:31;13.20;;;12.50;;
33206;SDS011;19565;46.602;11.534;2024-03-23T01:07:57;12.80;;;12.10;;
33206;SDS011;19565;46.602;11.534;2024-03-23T01:10:26;12.40;;;11.80;;
33206;SDS011;19565;46.602;11.534;2024-03-23T01:12:52;14.33;;;12.93;;
33206;SDS011;19565;46.602;11.534;2024-03-23T01:15:19;12.23;;;11.63;;
33206;SDS011;19565;46.602;11.534;2024-03-23T01:17:45;12.90;;;12.20;;
33206;SDS011;19565;46.602;11.534;2024-03-23T01:20:13;13.70;;;12.67;;
33206;SDS011;19565;46.602;11.534;2024-03-23T01:22:39;12.50;;;11.90;;
33206;SDS011;19565;46.602;11.534;2024-03-23T01:25:07;13.33;;;12.63;;
33206;SDS011;19565;46.602;11.534;2024-03-23T01:27:34;13.27;;;12.50;;
33206;SDS011;19565;46.602;11.534;2024-03-23T01:30:05;12.50;;;11.87;;
33206;SDS011;19565;46.602;11.534;2024-03-23T01:32:33;12.30;;;11.70;;
33206;SDS011;19565;46.602;11.534;2024-03-23T01:35:00;12.60;;;11.90;;
33206;SDS011;19565;46.602;11.534;2024-03-23T01:37:26;12.50;;;11.80;;
33206;SDS011;19565;46.602;11.534;2024-03-23T01:39:53;12.57;;;11.87;;
33206;SDS011;19565;46.602;11.534;2024-03-23T01:42:20;12.23;;;11.63;;
33206;SDS011;19565;46.602;11.534;2024-03-23T01:44:48;11.90;;;11.30;;
33206;SDS011;19565;46.602;11.534;2024-03-23T01:47:15;11.90;;;11.30;;
33206;SDS011;19565;46.602;11.534;2024-03-23T01:49:42;12.60;;;11.90;;
33206;SDS011;19565;46.602;11.534;2024-03-23T01:52:09;12.73;;;12.03;;
33206;SDS011;19565;46.602;11.534;2024-03-23T01:54:40;12.20;;;11.60;;
33206;SDS011;19565;46.602;11.534;2024-03-23T01:57:06;12.67;;;11.97;;
33206;SDS011;19565;46.602;11.534;2024-03-23T01:59:34;12.80;;;12.10;;
33206;SDS011;19565;46.602;11.534;2024-03-23T02:02:02;12.53;;;11.83;;
33206;SDS011;19565;46.602;11.534;2024-03-23T02:04:32;12.80;;;12.10;;
33206;SDS011;19565;46.602;11.534;2024-03-23T02:06:58;12.50;;;11.90;;
33206;SDS011;19565;46.602;11.534;2024-03-23T02:09:26;12.70;;;12.00;;
33206;SDS011;19565;46.602;11.534;2024-03-23T02:11:52;12.50;;;11.80;;
33206;SDS011;19565;46.602;11.534;2024-03-23T02:14:19;13.90;;;13.10;;
33206;SDS011;19565;46.602;11.534;2024-03-23T02:16:45;12.80;;;12.10;;
33206;SDS011;19565;46.602;11.534;2024-03-23T02:19:14;12.43;;;11.83;;
33206;SDS011;19565;46.602;11.534;2024-03-23T02:21:40;12.40;;;11.80;;
33206;SDS011;19565;46.602;11.534;2024-03-23T02:24:09;12.30;;;11.60;;
33206;SDS011;19565;46.602;11.534;2024-03-23T02:26:35;15.13;;;14.00;;
33206;SDS011;19565;46.602;11.534;2024-03-23T02:29:02;14.00;;;13.10;;
33206;SDS011;19565;46.602;11.534;2024-03-23T02:31:31;12.33;;;11.70;;
33206;SDS011;19565;46.602;11.534;2024-03-23T02:33:59;12.57;;;11.67;;
33206;SDS011;19565;46.602;11.534;2024-03-23T02:36:25;15.60;;;12.93;;
33206;SDS011;19565;46.602;11.534;2024-03-23T02:38:52;12.57;;;11.80;;
33206;SDS011;19565;46.602;11.534;2024-03-23T02:41:20;13.63;;;12.93;;
33206;SDS011;19565;46.602;11.534;2024-03-23T02:43:49;13.27;;;12.57;;
33206;SDS011;19565;46.602;11.534;2024-03-23T02:46:15;13.77;;;12.67;;
33206;SDS011;19565;46.602;11.534;2024-03-23T02:48:48;14.23;;;13.33;;
33206;SDS011;19565;46.602;11.534;2024-03-23T02:51:14;13.33;;;12.53;;
33206;SDS011;19565;46.602;11.534;2024-03-23T02:53:42;12.83;;;12.13;;
33206;SDS011;19565;46.602;11.534;2024-03-23T02:56:08;12.17;;;11.57;;
33206;SDS011;19565;46.602;11.534;2024-03-23T02:58:42;13.37;;;12.57;;
33206;SDS011;19565;46.602;11.534;2024-03-23T03:01:08;12.27;;;11.57;;
33206;SDS011;19565;46.602;11.534;2024-03-23T03:03:36;11.50;;;10.90;;
33206;SDS011;19565;46.602;11.534;2024-03-23T03:06:03;12.47;;;11.77;;
33206;SDS011;19565;46.602;11.534;2024-03-23T03:08:30;11.47;;;10.87;;
33206;SDS011;19565;46.602;11.534;2024-03-23T03:10:57;12.03;;;11.40;;
33206;SDS011;19565;46.602;11.534;2024-03-23T03:13:24;12.13;;;11.53;;
33206;SDS011;19565;46.602;11.534;2024-03-23T03:15:51;11.83;;;11.23;;
33206;SDS011;19565;46.602;11.534;2024-03-23T03:18:19;12.10;;;11.50;;
33206;SDS011;19565;46.602;11.534;2024-03-23T03:20:45;12.20;;;11.50;;
33206;SDS011;19565;46.602;11.534;2024-03-23T03:23:13;11.97;;;11.37;;
33206;SDS011;19565;46.602;11.534;2024-03-23T03:25:43;12.10;;;11.50;;
33206;SDS011;19565;46.602;11.534;2024-03-23T03:28:10;12.00;;;11.40;;
33206;SDS011;19565;46.602;11.534;2024-03-23T03:30:36;12.00;;;11.40;;
33206;SDS011;19565;46.602;11.534;2024-03-23T03:33:05;13.60;;;12.90;;
33206;SDS011;19565;46.602;11.534;2024-03-23T03:35:31;12.37;;;11.67;;
33206;SDS011;19565;46.602;11.534;2024-03-23T03:37:59;12.57;;;11.67;;
33206;SDS011;19565;46.602;11.534;2024-03-23T03:40:25;12.87;;;12.17;;
33206;SDS011;19565;46.602;11.534;2024-03-23T03:42:52;12.10;;;11.50;;
33206;SDS011;19565;46.602;11.534;2024-03-23T03:45:18;12.30;;;11.60;;
33206;SDS011;19565;46.602;11.534;2024-03-23T03:47:46;12.40;;;11.80;;
33206;SDS011;19565;46.602;11.534;2024-03-23T03:50:13;12.67;;;11.97;;
33206;SDS011;19565;46.602;11.534;2024-03-23T03:52:41;12.13;;;11.53;;
33206;SDS011;19565;46.602;11.534;2024-03-23T03:55:13;12.50;;;11.90;;
33206;SDS011;19565;46.602;11.534;2024-03-23T03:57:41;12.10;;;11.50;;
33206;SDS011;19565;46.602;11.534;2024-03-23T04:00:07;12.80;;;12.10;;
33206;SDS011;19565;46.602;11.534;2024-03-23T04:02:36;12.70;;;11.97;;
33206;SDS011;19565;46.602;11.534;2024-03-23T04:05:03;12.40;;;11.63;;
33206;SDS011;19565;46.602;11.534;2024-03-23T04:07:32;11.77;;;11.17;;
33206;SDS011;19565;46.602;11.534;2024-03-23T04:09:58;11.70;;;11.10;;
33206;SDS011;19565;46.602;11.534;2024-03-23T04:12:25;12.67;;;11.87;;
33206;SDS011;19565;46.602;11.534;2024-03-23T04:14:51;12.00;;;11.40;;
33206;SDS011;19565;46.602;11.534;2024-03-23T04:17:19;11.90;;;11.30;;
33206;SDS011;19565;46.602;11.534;2024-03-23T04:19:46;12.10;;;11.40;;
33206;SDS011;19565;46.602;11.534;2024-03-23T04:22:14;12.47;;;11.77;;
33206;SDS011;19565;46.602;11.534;2024-03-23T04:24:42;12.43;;;11.73;;
33206;SDS011;19565;46.602;11.534;2024-03-23T04:27:09;11.90;;;11.30;;
33206;SDS011;19565;46.602;11.534;2024-03-23T04:29:36;11.90;;;11.30;;
33206;SDS011;19565;46.602;11.534;2024-03-23T04:32:03;11.90;;;11.30;;
33206;SDS011;19565;46.602;11.534;2024-03-23T04:34:30;12.20;;;11.50;;
33206;SDS011;19565;46.602;11.534;2024-03-23T04:37:01;20.27;;;19.37;;
33206;SDS011;19565;46.602;11.534;2024-03-23T04:39:27;20.80;;;19.73;;
33206;SDS011;19565;46.602;11.534;2024-03-23T04:41:56;19.53;;;18.53;;
33206;SDS011;19565;46.602;11.534;2024-03-23T04:44:25;20.43;;;19.43;;
33206;SDS011;19565;46.602;11.534;2024-03-23T04:46:57;20.33;;;19.43;;
33206;SDS011;19565;46.602;11.534;2024-03-23T04:49:24;19.93;;;19.03;;
33206;SDS011;19565;46.602;11.534;2024-03-23T04:51:52;20.07;;;19.17;;
33206;SDS011;19565;46.602;11.534;2024-03-23T04:54:19;21.03;;;19.57;;
33206;SDS011;19565;46.602;11.534;2024-03-23T04:56:46;21.03;;;20.03;;
33206;SDS011;19565;46.602;11.534;2024-03-23T04:59:14;19.23;;;18.33;;
33206;SDS011;19565;46.602;11.534;2024-03-23T05:01:41;20.20;;;19.30;;
33206;SDS011;19565;46.602;11.534;2024-03-23T05:04:08;20.13;;;19.23;;
33206;SDS011;19565;46.602;11.534;2024-03-23T05:06:41;20.07;;;19.17;;
33206;SDS011;19565;46.602;11.534;2024-03-23T05:09:07;12.20;;;11.50;;
33206;SDS011;19565;46.602;11.534;2024-03-23T05:11:37;25.37;;;24.27;;
33206;SDS011;19565;46.602;11.534;2024-03-23T05:14:03;23.17;;;22.07;;
33206;SDS011;19565;46.602;11.534;2024-03-23T05:16:32;23.13;;;22.10;;
33206;SDS011;19565;46.602;11.534;2024-03-23T05:18:58;22.30;;;21.30;;
33206;SDS011;19565;46.602;11.534;2024-03-23T05:21:26;20.57;;;19.67;;
33206;SDS011;19565;46.602;11.534;2024-03-23T05:23:53;21.10;;;20.00;;
33206;SDS011;19565;46.602;11.534;2024-03-23T05:26:21;19.73;;;18.83;;
33206;SDS011;19565;46.602;11.534;2024-03-23T05:28:47;10.63;;;9.73;;
33206;SDS011;19565;46.602;11.534;2024-03-23T05:31:22;9.90;;;9.30;;
33206;SDS011;19565;46.602;11.534;2024-03-23T05:33:50;9.40;;;8.90;;
33206;SDS011;19565;46.602;11.534;2024-03-23T05:36:17;10.27;;;9.43;;
33206;SDS011;19565;46.602;11.534;2024-03-23T05:38:43;10.03;;;9.43;;
33206;SDS011;19565;46.602;11.534;2024-03-23T05:41:11;9.60;;;9.00;;
33206;SDS011;19565;46.602;11.534;2024-03-23T05:43:37;9.53;;;8.93;;
33206;SDS011;19565;46.602;11.534;2024-03-23T05:46:04;8.90;;;8.40;;
33206;SDS011;19565;46.602;11.534;2024-03-23T05:48:31;9.60;;;9.00;;
33206;SDS011;19565;46.602;11.534;2024-03-23T05:51:00;9.23;;;8.73;;
33206;SDS011;19565;46.602;11.534;2024-03-23T05:53:26;10.10;;;9.40;;
33206;SDS011;19565;46.602;11.534;2024-03-23T05:56:00;11.03;;;10.33;;
33206;SDS011;19565;46.602;11.534;2024-03-23T05:58:31;9.97;;;9.37;;
33206;SDS011;19565;46.602;11.534;2024-03-23T06:00:59;11.67;;;10.77;;
33206;SDS011;19565;46.602;11.534;2024-03-23T06:03:26;9.67;;;9.17;;
33206;SDS011;19565;46.602;11.534;2024-03-23T06:05:54;9.97;;;9.37;;
33206;SDS011;19565;46.602;11.534;2024-03-23T06:08:22;10.63;;;10.03;;
33206;SDS011;19565;46.602;11.534;2024-03-23T06:10:49;10.30;;;9.70;;
33206;SDS011;19565;46.602;11.534;2024-03-23T06:13:16;10.63;;;10.03;;
33206;SDS011;19565;46.602;11.534;2024-03-23T06:15:43;10.23;;;9.63;;
33206;SDS011;19565;46.602;11.534;2024-03-23T06:18:11;9.50;;;9.00;;
33206;SDS011;19565;46.602;11.534;2024-03-23T06:20:38;9.60;;;9.10;;
33206;SDS011;19565;46.602;11.534;2024-03-23T06:23:05;10.30;;;9.70;;
33206;SDS011;19565;46.602;11.534;2024-03-23T06:25:33;9.93;;;9.43;;
33206;SDS011;19565;46.602;11.534;2024-03-23T06:28:00;10.43;;;9.83;;
33206;SDS011;19565;46.602;11.534;2024-03-23T06:30:28;10.87;;;10.27;;
33206;SDS011;19565;46.602;11.534;2024-03-23T06:32:55;11.00;;;10.40;;
33206;SDS011;19565;46.602;11.534;2024-03-23T06:35:22;10.13;;;9.47;;
33206;SDS011;19565;46.602;11.534;2024-03-23T06:37:48;10.30;;;9.70;;
33206;SDS011;19565;46.602;11.534;2024-03-23T06:40:16;10.43;;;9.83;;
33206;SDS011;19565;46.602;11.534;2024-03-23T06:42:43;12.40;;;11.57;;
33206;SDS011;19565;46.602;11.534;2024-03-23T06:45:10;10.03;;;9.43;;
33206;SDS011;19565;46.602;11.534;2024-03-23T06:47:37;11.00;;;9.67;;
33206;SDS011;19565;46.602;11.534;2024-03-23T06:50:05;10.43;;;9.80;;
33206;SDS011;19565;46.602;11.534;2024-03-23T06:52:32;11.53;;;10.83;;
33206;SDS011;19565;46.602;11.534;2024-03-23T06:54:59;9.80;;;9.23;;
33206;SDS011;19565;46.602;11.534;2024-03-23T06:57:25;10.77;;;10.17;;
33206;SDS011;19565;46.602;11.534;2024-03-23T06:59:54;10.53;;;9.93;;
33206;SDS011;19565;46.602;11.534;2024-03-23T07:02:20;10.10;;;9.50;;
33206;SDS011;19565;46.602;11.534;2024-03-23T07:04:48;10.47;;;9.87;;
33206;SDS011;19565;46.602;11.534;2024-03-23T07:07:14;10.17;;;9.57;;
33206;SDS011;19565;46.602;11.534;2024-03-23T07:09:41;10.40;;;9.80;;
33206;SDS011;19565;46.602;11.534;2024-03-23T07:12:08;11.53;;;10.83;;
33206;SDS011;19565;46.602;11.534;2024-03-23T07:14:35;10.37;;;9.77;;
33206;SDS011;19565;46.602;11.534;2024-03-23T07:17:03;11.00;;;10.40;;
33206;SDS011;19565;46.602;11.534;2024-03-23T07:19:30;10.20;;;9.60;;
33206;SDS011;19565;46.602;11.534;2024-03-23T07:21:56;10.77;;;10.17;;
33206;SDS011;19565;46.602;11.534;2024-03-23T07:24:24;10.10;;;9.50;;
33206;SDS011;19565;46.602;11.534;2024-03-23T07:26:51;12.20;;;11.60;;
33206;SDS011;19565;46.602;11.534;2024-03-23T07:29:19;11.20;;;10.60;;
33206;SDS011;19565;46.602;11.534;2024-03-23T07:31:46;12.60;;;11.80;;
33206;SDS011;19565;46.602;11.534;2024-03-23T07:34:14;13.00;;;12.20;;
33206;SDS011;19565;46.602;11.534;2024-03-23T07:36:41;13.50;;;12.73;;
33206;SDS011;19565;46.602;11.534;2024-03-23T07:39:08;12.13;;;11.53;;
33206;SDS011;19565;46.602;11.534;2024-03-23T07:41:35;12.40;;;11.70;;
33206;SDS011;19565;46.602;11.534;2024-03-23T07:44:01;11.57;;;10.97;;
33206;SDS011;19565;46.602;11.534;2024-03-23T07:46:29;11.80;;;11.10;;
33206;SDS011;19565;46.602;11.534;2024-03-23T07:48:55;12.33;;;11.67;;
33206;SDS011;19565;46.602;11.534;2024-03-23T07:51:24;11.40;;;10.80;;
33206;SDS011;19565;46.602;11.534;2024-03-23T07:53:50;11.93;;;11.33;;
33206;SDS011;19565;46.602;11.534;2024-03-23T07:56:18;11.43;;;10.83;;
33206;SDS011;19565;46.602;11.534;2024-03-23T07:58:45;13.27;;;12.33;;
33206;SDS011;19565;46.602;11.534;2024-03-23T08:01:13;11.83;;;11.23;;
33206;SDS011;19565;46.602;11.534;2024-03-23T08:03:40;11.80;;;11.20;;
33206;SDS011;19565;46.602;11.534;2024-03-23T08:06:09;12.20;;;11.50;;
33206;SDS011;19565;46.602;11.534;2024-03-23T08:08:38;11.30;;;10.70;;
33206;SDS011;19565;46.602;11.534;2024-03-23T08:11:06;11.13;;;10.53;;
33206;SDS011;19565;46.602;11.534;2024-03-23T08:13:33;12.10;;;11.50;;
33206;SDS011;19565;46.602;11.534;2024-03-23T08:16:01;12.07;;;11.47;;
33206;SDS011;19565;46.602;11.534;2024-03-23T08:18:28;11.83;;;11.23;;
33206;SDS011;19565;46.602;11.534;2024-03-23T08:20:56;14.77;;;13.80;;
33206;SDS011;19565;46.602;11.534;2024-03-23T08:23:23;11.67;;;11.03;;
33206;SDS011;19565;46.602;11.534;2024-03-23T08:25:52;12.80;;;12.10;;
33206;SDS011;19565;46.602;11.534;2024-03-23T08:28:23;12.13;;;11.53;;
33206;SDS011;19565;46.602;11.534;2024-03-23T08:30:50;18.17;;;17.27;;
33206;SDS011;19565;46.602;11.534;2024-03-23T08:33:17;24.77;;;23.27;;
33206;SDS011;19565;46.602;11.534;2024-03-23T08:35:52;27.97;;;26.77;;
33206;SDS011;19565;46.602;11.534;2024-03-23T08:38:20;20.40;;;19.30;;
33206;SDS011;19565;46.602;11.534;2024-03-23T08:40:47;25.80;;;24.70;;
33206;SDS011;19565;46.602;11.534;2024-03-23T08:43:15;22.60;;;21.60;;
33206;SDS011;19565;46.602;11.534;2024-03-23T08:45:42;21.03;;;20.03;;
33206;SDS011;19565;46.602;11.534;2024-03-23T08:48:08;22.30;;;21.30;;
33206;SDS011;19565;46.602;11.534;2024-03-23T08:50:35;24.73;;;23.53;;
33206;SDS011;19565;46.602;11.534;2024-03-23T08:53:02;23.20;;;22.10;;
33206;SDS011;19565;46.602;11.534;2024-03-23T08:55:29;24.80;;;23.70;;
33206;SDS011;19565;46.602;11.534;2024-03-23T08:57:56;22.50;;;21.50;;
33206;SDS011;19565;46.602;11.534;2024-03-23T09:00:24;23.10;;;22.00;;
33206;SDS011;19565;46.602;11.534;2024-03-23T09:02:57;21.20;;;20.20;;
33206;SDS011;19565;46.602;11.534;2024-03-23T09:05:24;22.17;;;21.17;;
33206;SDS011;19565;46.602;11.534;2024-03-23T09:07:50;21.27;;;20.27;;
33206;SDS011;19565;46.602;11.534;2024-03-23T09:10:18;21.57;;;20.57;;
33206;SDS011;19565;46.602;11.534;2024-03-23T09:12:44;22.03;;;21.03;;
33206;SDS011;19565;46.602;11.534;2024-03-23T09:15:11;21.93;;;20.93;;
33206;SDS011;19565;46.602;11.534;2024-03-23T09:17:39;22.10;;;21.10;;
33206;SDS011;19565;46.602;11.534;2024-03-23T09:20:07;11.20;;;10.60;;
33206;SDS011;19565;46.602;11.534;2024-03-23T09:22:34;11.20;;;10.60;;
33206;SDS011;19565;46.602;11.534;2024-03-23T09:25:01;12.30;;;11.43;;
33206;SDS011;19565;46.602;11.534;2024-03-23T09:27:29;12.83;;;12.13;;
33206;SDS011;19565;46.602;11.534;2024-03-23T09:29:56;12.93;;;12.23;;
33206;SDS011;19565;46.602;11.534;2024-03-23T09:32:22;13.30;;;12.60;;
33206;SDS011;19565;46.602;11.534;2024-03-23T09:34:51;13.07;;;12.20;;
33206;SDS011;19565;46.602;11.534;2024-03-23T09:37:17;12.40;;;11.70;;
33206;SDS011;19565;46.602;11.534;2024-03-23T09:39:44;13.23;;;12.40;;
33206;SDS011;19565;46.602;11.534;2024-03-23T09:42:11;12.53;;;11.77;;
33206;SDS011;19565;46.602;11.534;2024-03-23T09:44:39;11.63;;;11.03;;
33206;SDS011;19565;46.602;11.534;2024-03-23T09:47:06;13.10;;;12.37;;
33206;SDS011;19565;46.602;11.534;2024-03-23T09:49:40;13.60;;;12.53;;
33206;SDS011;19565;46.602;11.534;2024-03-23T09:52:08;12.27;;;11.47;;
33206;SDS011;19565;46.602;11.534;2024-03-23T09:55:01;12.10;;;11.40;;
33206;SDS011;19565;46.602;11.534;2024-03-23T09:57:40;11.83;;;11.07;;
33206;SDS011;19565;46.602;11.534;2024-03-23T10:00:12;11.80;;;11.20;;
33206;SDS011;19565;46.602;11.534;2024-03-23T10:02:40;13.27;;;12.47;;
33206;SDS011;19565;46.602;11.534;2024-03-23T10:05:24;13.30;;;12.47;;
33206;SDS011;19565;46.602;11.534;2024-03-23T10:07:54;12.10;;;11.40;;
33206;SDS011;19565;46.602;11.534;2024-03-23T10:10:30;11.30;;;10.70;;
33206;SDS011;19565;46.602;11.534;2024-03-23T10:12:57;13.57;;;12.77;;
33206;SDS011;19565;46.602;11.534;2024-03-23T10:15:24;12.83;;;12.13;;
33206;SDS011;19565;46.602;11.534;2024-03-23T10:17:52;11.33;;;10.63;;
33206;SDS011;19565;46.602;11.534;2024-03-23T10:20:19;11.67;;;10.93;;
33206;SDS011;19565;46.602;11.534;2024-03-23T10:22:48;14.47;;;13.47;;
33206;SDS011;19565;46.602;11.534;2024-03-23T10:25:16;14.73;;;13.63;;
33206;SDS011;19565;46.602;11.534;2024-03-23T10:27:44;11.83;;;11.13;;
33206;SDS011;19565;46.602;11.534;2024-03-23T10:30:25;11.97;;;11.37;;
33206;SDS011;19565;46.602;11.534;2024-03-23T10:32:55;14.90;;;13.97;;
33206;SDS011;19565;46.602;11.534;2024-03-23T10:35:33;12.53;;;10.97;;
33206;SDS011;19565;46.602;11.534;2024-03-23T10:38:00;11.80;;;11.10;;
33206;SDS011;19565;46.602;11.534;2024-03-23T10:40:28;13.40;;;12.60;;
33206;SDS011;19565;46.602;11.534;2024-03-23T10:42:57;19.23;;;18.20;;
33206;SDS011;19565;46.602;11.534;2024-03-23T10:45:24;12.33;;;11.63;;
33206;SDS011;19565;46.602;11.534;2024-03-23T10:47:54;13.67;;;12.90;;
33206;SDS011;19565;46.602;11.534;2024-03-23T10:50:21;14.17;;;13.27;;
33206;SDS011;19565;46.602;11.534;2024-03-23T10:52:52;13.03;;;12.23;;
33206;SDS011;19565;46.602;11.534;2024-03-23T10:55:20;13.50;;;12.80;;
33206;SDS011;19565;46.602;11.534;2024-03-23T10:57:56;12.83;;;12.10;;
33206;SDS011;19565;46.602;11.534;2024-03-23T11:00:32;13.23;;;12.23;;
33206;SDS011;19565;46.602;11.534;2024-03-23T11:05:59;14.27;;;13.37;;
33206;SDS011;19565;46.602;11.534;2024-03-23T11:08:30;13.33;;;12.50;;
33206;SDS011;19565;46.602;11.534;2024-03-23T11:11:15;12.05;;;11.27;;
33206;SDS011;19565;46.602;11.534;2024-03-23T11:14:04;12.30;;;11.60;;
33206;SDS011;19565;46.602;11.534;2024-03-23T11:16:48;14.60;;;13.60;;
33206;SDS011;19565;46.602;11.534;2024-03-23T11:19:38;19.80;;;15.18;;
33206;SDS011;19565;46.602;11.534;2024-03-23T11:22:09;14.35;;;13.27;;
33206;SDS011;19565;46.602;11.534;2024-03-23T11:24:40;11.95;;;11.18;;
33206;SDS011;19565;46.602;11.534;2024-03-23T11:27:15;13.00;;;12.30;;
33206;SDS011;19565;46.602;11.534;2024-03-23T11:29:45;12.10;;;11.23;;
33206;SDS011;19565;46.602;11.534;2024-03-23T11:32:12;12.77;;;11.88;;
33206;SDS011;19565;46.602;11.534;2024-03-23T11:34:39;12.80;;;11.85;;
33206;SDS011;19565;46.602;11.534;2024-03-23T11:37:06;13.65;;;12.57;;
33206;SDS011;19565;46.602;11.534;2024-03-23T11:39:34;11.95;;;11.23;;
33206;SDS011;19565;46.602;11.534;2024-03-23T11:42:01;13.45;;;12.32;;
33206;SDS011;19565;46.602;11.534;2024-03-23T11:44:29;12.13;;;11.43;;
33206;SDS011;19565;46.602;11.534;2024-03-23T11:46:58;12.20;;;11.50;;
33206;SDS011;19565;46.602;11.534;2024-03-23T11:49:34;13.00;;;12.20;;
33206;SDS011;19565;46.602;11.534;2024-03-23T11:52:09;12.57;;;11.77;;
33206;SDS011;19565;46.602;11.534;2024-03-23T11:54:39;12.00;;;11.25;;
33206;SDS011;19565;46.602;11.534;2024-03-23T11:57:07;13.15;;;12.35;;
33206;SDS011;19565;46.602;11.534;2024-03-23T11:59:35;12.63;;;11.82;;
33206;SDS011;19565;46.602;11.534;2024-03-23T12:02:08;12.27;;;11.57;;
33206;SDS011;19565;46.602;11.534;2024-03-23T12:04:36;13.85;;;12.90;;
33206;SDS011;19565;46.602;11.534;2024-03-23T12:07:10;17.33;;;16.10;;
33206;SDS011;19565;46.602;11.534;2024-03-23T12:09:40;12.40;;;11.60;;
33206;SDS011;19565;46.602;11.534;2024-03-23T12:12:10;13.43;;;12.52;;
33206;SDS011;19565;46.602;11.534;2024-03-23T12:14:41;11.88;;;11.02;;
33206;SDS011;19565;46.602;11.534;2024-03-23T12:17:10;12.68;;;11.88;;
33206;SDS011;19565;46.602;11.534;2024-03-23T12:19:38;15.65;;;14.65;;
33206;SDS011;19565;46.602;11.534;2024-03-23T12:22:06;11.57;;;10.95;;
33206;SDS011;19565;46.602;11.534;2024-03-23T12:24:34;14.30;;;13.40;;
33206;SDS011;19565;46.602;11.534;2024-03-23T12:27:07;14.68;;;13.48;;
33206;SDS011;19565;46.602;11.534;2024-03-23T12:29:53;12.07;;;11.07;;
33206;SDS011;19565;46.602;11.534;2024-03-23T12:32:22;12.65;;;11.85;;
33206;SDS011;19565;46.602;11.534;2024-03-23T12:34:50;13.45;;;12.65;;
33206;SDS011;19565;46.602;11.534;2024-03-23T12:37:17;11.88;;;11.18;;
33206;SDS011;19565;46.602;11.534;2024-03-23T12:39:44;12.77;;;12.07;;
33206;SDS011;19565;46.602;11.534;2024-03-23T12:42:14;11.48;;;10.82;;
33206;SDS011;19565;46.602;11.534;2024-03-23T12:44:45;12.02;;;11.18;;
33206;SDS011;19565;46.602;11.534;2024-03-23T12:47:16;13.00;;;12.15;;
33206;SDS011;19565;46.602;11.534;2024-03-23T12:49:43;11.80;;;11.02;;
33206;SDS011;19565;46.602;11.534;2024-03-23T12:52:12;13.07;;;12.18;;
33206;SDS011;19565;46.602;11.534;2024-03-23T12:54:38;12.73;;;11.98;;
33206;SDS011;19565;46.602;11.534;2024-03-23T12:57:11;12.68;;;11.90;;
33206;SDS011;19565;46.602;11.534;2024-03-23T12:59:44;13.02;;;12.18;;
33206;SDS011;19565;46.602;11.534;2024-03-23T13:02:19;13.95;;;13.15;;
33206;SDS011;19565;46.602;11.534;2024-03-23T13:04:56;13.20;;;12.20;;
33206;SDS011;19565;46.602;11.534;2024-03-23T13:07:23;13.00;;;11.82;;
33206;SDS011;19565;46.602;11.534;2024-03-23T13:09:50;11.77;;;11.15;;
33206;SDS011;19565;46.602;11.534;2024-03-23T13:12:18;13.00;;;12.30;;
33206;SDS011;19565;46.602;11.534;2024-03-23T13:14:47;12.32;;;11.63;;
33206;SDS011;19565;46.602;11.534;2024-03-23T13:17:15;14.85;;;13.68;;
33206;SDS011;19565;46.602;11.534;2024-03-23T13:19:48;11.73;;;11.13;;
33206;SDS011;19565;46.602;11.534;2024-03-23T13:22:28;13.02;;;12.23;;
33206;SDS011;19565;46.602;11.534;2024-03-23T13:24:55;13.00;;;12.23;;
33206;SDS011;19565;46.602;11.534;2024-03-23T13:27:25;12.35;;;11.60;;
33206;SDS011;19565;46.602;11.534;2024-03-23T13:29:52;13.18;;;12.48;;
33206;SDS011;19565;46.602;11.534;2024-03-23T13:32:22;13.63;;;12.73;;
33206;SDS011;19565;46.602;11.534;2024-03-23T13:34:49;13.15;;;12.23;;
33206;SDS011;19565;46.602;11.534;2024-03-23T13:37:16;13.15;;;12.25;;
33206;SDS011;19565;46.602;11.534;2024-03-23T13:39:44;12.98;;;12.25;;
33206;SDS011;19565;46.602;11.534;2024-03-23T13:42:12;17.15;;;16.17;;
33206;SDS011;19565;46.602;11.534;2024-03-23T13:44:38;12.98;;;12.18;;
33206;SDS011;19565;46.602;11.534;2024-03-23T13:47:06;11.80;;;11.15;;
33206;SDS011;19565;46.602;11.534;2024-03-23T13:49:32;13.98;;;12.90;;
33206;SDS011;19565;46.602;11.534;2024-03-23T13:51:59;12.80;;;12.00;;
33206;SDS011;19565;46.602;11.534;2024-03-23T13:54:26;11.60;;;10.90;;
33206;SDS011;19565;46.602;11.534;2024-03-23T13:56:55;11.63;;;10.93;;
33206;SDS011;19565;46.602;11.534;2024-03-23T13:59:24;12.13;;;11.30;;
33206;SDS011;19565;46.602;11.534;2024-03-23T14:01:51;13.25;;;12.25;;
33206;SDS011;19565;46.602;11.534;2024-03-23T14:04:17;12.52;;;11.82;;
33206;SDS011;19565;46.602;11.534;2024-03-23T14:06:49;12.38;;;11.57;;
33206;SDS011;19565;46.602;11.534;2024-03-23T14:09:15;12.85;;;12.07;;
33206;SDS011;19565;46.602;11.534;2024-03-23T14:11:46;13.00;;;11.75;;
33206;SDS011;19565;46.602;11.534;2024-03-23T14:14:14;15.88;;;14.43;;
33206;SDS011;19565;46.602;11.534;2024-03-23T14:16:42;13.20;;;12.40;;
33206;SDS011;19565;46.602;11.534;2024-03-23T14:19:08;12.20;;;11.50;;
33206;SDS011;19565;46.602;11.534;2024-03-23T14:21:36;13.60;;;12.35;;
33206;SDS011;19565;46.602;11.534;2024-03-23T14:24:02;11.18;;;10.57;;
33206;SDS011;19565;46.602;11.534;2024-03-23T14:26:34;12.27;;;11.40;;
33206;SDS011;19565;46.602;11.534;2024-03-23T14:29:01;12.70;;;11.80;;
33206;SDS011;19565;46.602;11.534;2024-03-23T14:31:30;12.10;;;11.40;;
33206;SDS011;19565;46.602;11.534;2024-03-23T14:33:56;11.98;;;11.30;;
33206;SDS011;19565;46.602;11.534;2024-03-23T14:36:26;13.70;;;12.73;;
33206;SDS011;19565;46.602;11.534;2024-03-23T14:38:53;13.15;;;12.40;;
33206;SDS011;19565;46.602;11.534;2024-03-23T14:41:23;12.57;;;11.88;;
33206;SDS011;19565;46.602;11.534;2024-03-23T14:43:50;11.75;;;11.05;;
33206;SDS011;19565;46.602;11.534;2024-03-23T14:46:19;12.37;;;11.57;;
33206;SDS011;19565;46.602;11.534;2024-03-23T14:48:47;11.50;;;10.80;;
33206;SDS011;19565;46.602;11.534;2024-03-23T14:51:14;10.60;;;10.00;;
33206;SDS011;19565;46.602;11.534;2024-03-23T14:53:41;12.00;;;11.33;;
33206;SDS011;19565;46.602;11.534;2024-03-23T14:56:12;11.10;;;10.50;;
33206;SDS011;19565;46.602;11.534;2024-03-23T14:58:40;8.33;;;7.73;;
33206;SDS011;19565;46.602;11.534;2024-03-23T15:01:08;4.30;;;4.10;;
33206;SDS011;19565;46.602;11.534;2024-03-23T15:03:35;7.50;;;7.10;;
33206;SDS011;19565;46.602;11.534;2024-03-23T15:06:06;8.20;;;7.70;;
33206;SDS011;19565;46.602;11.534;2024-03-23T15:08:34;8.73;;;8.23;;
33206;SDS011;19565;46.602;11.534;2024-03-23T15:11:02;8.90;;;8.40;;
33206;SDS011;19565;46.602;11.534;2024-03-23T15:13:30;9.67;;;8.90;;